Terminal Aerodrome Forecast
Issued by NWS Nashville, TN

Home | Current Version | Previous Version | Text Only | Print | Product List | Glossary On
Versions: 1 2 3 4 5 6 7 8 9 10 11 12 13 14 15 16 17 18
000
FTUS44 KOHX 251738
TAFCSV
TAF
KCSV 251738Z 2518/2618 17012G22KT P6SM BKN040
     FM260000 17012KT P6SM -SHRA VCTS OVC035CB
     FM260600 16011KT 4SM -SHRA BR BKN015 OVC025=

USA.gov is the U.S. government's official web portal to all federal, state and local government web resources and services.